sensor_id;sensor_type;location;lat;lon;timestamp;temperature;humidity
59282;DHT22;45054;52.062;10.010;2024-03-23T00:53:20;8.00;99.90
59282;DHT22;45054;52.062;10.010;2024-03-23T00:55:45;8.00;99.90
59282;DHT22;45054;52.062;10.010;2024-03-23T00:58:11;8.00;99.90
59282;DHT22;45054;52.062;10.010;2024-03-23T01:00:36;8.00;99.90
59282;DHT22;45054;52.062;10.010;2024-03-23T01:03:02;8.00;99.90
59282;DHT22;45054;52.062;10.010;2024-03-23T01:05:27;8.00;99.90
59282;DHT22;45054;52.062;10.010;2024-03-23T01:07:53;8.00;99.90
59282;DHT22;45054;52.062;10.010;2024-03-23T01:10:20;8.00;99.90
59282;DHT22;45054;52.062;10.010;2024-03-23T01:12:45;8.00;99.90
59282;DHT22;45054;52.062;10.010;2024-03-23T01:15:11;7.90;99.90
59282;DHT22;45054;52.062;10.010;2024-03-23T01:17:36;7.90;99.90
59282;DHT22;45054;52.062;10.010;2024-03-23T01:20:02;7.80;99.90
59282;DHT22;45054;52.062;10.010;2024-03-23T01:22:28;7.80;99.90
59282;DHT22;45054;52.062;10.010;2024-03-23T01:24:53;7.70;99.90
59282;DHT22;45054;52.062;10.010;2024-03-23T01:27:20;7.80;99.90
59282;DHT22;45054;52.062;10.010;2024-03-23T01:29:46;7.80;99.90
59282;DHT22;45054;52.062;10.010;2024-03-23T01:32:11;7.80;99.90
59282;DHT22;45054;52.062;10.010;2024-03-23T01:34:37;7.80;99.90
59282;DHT22;45054;52.062;10.010;2024-03-23T01:37:03;7.70;99.90
59282;DHT22;45054;52.062;10.010;2024-03-23T01:39:28;7.70;99.90
59282;DHT22;45054;52.062;10.010;2024-03-23T01:41:54;7.60;99.90
59282;DHT22;45054;52.062;10.010;2024-03-23T01:44:21;7.60;99.90
59282;DHT22;45054;52.062;10.010;2024-03-23T01:46:46;7.60;99.90
59282;DHT22;45054;52.062;10.010;2024-03-23T01:49:12;7.60;99.90
59282;DHT22;45054;52.062;10.010;2024-03-23T01:51:38;7.70;99.90
59282;DHT22;45054;52.062;10.010;2024-03-23T01:54:04;7.70;99.90
59282;DHT22;45054;52.062;10.010;2024-03-23T01:56:32;7.60;99.90
59282;DHT22;45054;52.062;10.010;2024-03-23T01:58:58;7.60;99.90
59282;DHT22;45054;52.062;10.010;2024-03-23T02:01:25;7.60;99.90
59282;DHT22;45054;52.062;10.010;2024-03-23T02:03:50;7.60;99.90
59282;DHT22;45054;52.062;10.010;2024-03-23T02:06:16;7.70;99.90
59282;DHT22;45054;52.062;10.010;2024-03-23T02:08:41;7.70;99.90
59282;DHT22;45054;52.062;10.010;2024-03-23T02:11:07;7.70;99.90
59282;DHT22;45054;52.062;10.010;2024-03-23T02:13:33;7.60;99.90
59282;DHT22;45054;52.062;10.010;2024-03-23T02:15:59;7.70;99.90
59282;DHT22;45054;52.062;10.010;2024-03-23T02:18:25;7.70;99.90
59282;DHT22;45054;52.062;10.010;2024-03-23T02:20:51;7.70;99.90
59282;DHT22;45054;52.062;10.010;2024-03-23T02:23:18;7.60;99.90
59282;DHT22;45054;52.062;10.010;2024-03-23T02:25:44;7.60;99.90
59282;DHT22;45054;52.062;10.010;2024-03-23T02:28:10;7.60;99.90
59282;DHT22;45054;52.062;10.010;2024-03-23T02:30:35;7.70;99.90
59282;DHT22;45054;52.062;10.010;2024-03-23T02:33:01;7.60;99.90
59282;DHT22;45054;52.062;10.010;2024-03-23T02:35:26;7.70;99.90
59282;DHT22;45054;52.062;10.010;2024-03-23T02:37:52;7.60;99.90
59282;DHT22;45054;52.062;10.010;2024-03-23T02:40:20;7.60;99.90
59282;DHT22;45054;52.062;10.010;2024-03-23T02:42:45;7.60;99.90
59282;DHT22;45054;52.062;10.010;2024-03-23T02:45:11;7.60;99.90
59282;DHT22;45054;52.062;10.010;2024-03-23T02:47:37;7.60;99.90
59282;DHT22;45054;52.062;10.010;2024-03-23T02:50:03;7.60;99.90
59282;DHT22;45054;52.062;10.010;2024-03-23T02:52:28;7.60;99.90
59282;DHT22;45054;52.062;10.010;2024-03-23T02:54:54;7.60;99.90
59282;DHT22;45054;52.062;10.010;2024-03-23T02:57:21;7.60;99.90
59282;DHT22;45054;52.062;10.010;2024-03-23T02:59:46;7.60;99.90
59282;DHT22;45054;52.062;10.010;2024-03-23T03:02:13;7.60;99.90
59282;DHT22;45054;52.062;10.010;2024-03-23T03:04:39;7.50;99.90
59282;DHT22;45054;52.062;10.010;2024-03-23T03:07:05;7.50;99.90
59282;DHT22;45054;52.062;10.010;2024-03-23T03:09:30;7.50;99.90
59282;DHT22;45054;52.062;10.010;2024-03-23T03:11:56;7.50;99.90
59282;DHT22;45054;52.062;10.010;2024-03-23T03:14:23;7.50;99.90
59282;DHT22;45054;52.062;10.010;2024-03-23T03:16:48;7.50;99.90
59282;DHT22;45054;52.062;10.010;2024-03-23T03:19:14;7.50;99.90
59282;DHT22;45054;52.062;10.010;2024-03-23T03:21:40;7.50;99.90
59282;DHT22;45054;52.062;10.010;2024-03-23T03:24:06;7.50;99.90
59282;DHT22;45054;52.062;10.010;2024-03-23T03:26:32;7.50;99.90
59282;DHT22;45054;52.062;10.010;2024-03-23T03:28:57;7.60;99.90
59282;DHT22;45054;52.062;10.010;2024-03-23T03:31:24;7.60;99.90
59282;DHT22;45054;52.062;10.010;2024-03-23T03:33:50;7.60;99.90
59282;DHT22;45054;52.062;10.010;2024-03-23T03:36:16;7.60;99.90
59282;DHT22;45054;52.062;10.010;2024-03-23T03:38:41;7.60;99.90
59282;DHT22;45054;52.062;10.010;2024-03-23T03:41:07;7.60;99.90
59282;DHT22;45054;52.062;10.010;2024-03-23T03:43:33;7.60;99.90
59282;DHT22;45054;52.062;10.010;2024-03-23T03:46:00;7.60;99.90
59282;DHT22;45054;52.062;10.010;2024-03-23T03:48:27;7.50;99.90
59282;DHT22;45054;52.062;10.010;2024-03-23T03:50:53;7.50;99.90
59282;DHT22;45054;52.062;10.010;2024-03-23T03:53:19;7.50;99.90
59282;DHT22;45054;52.062;10.010;2024-03-23T03:55:45;7.40;99.90
59282;DHT22;45054;52.062;10.010;2024-03-23T03:58:10;7.40;99.90
59282;DHT22;45054;52.062;10.010;2024-03-23T04:00:36;7.40;99.90
59282;DHT22;45054;52.062;10.010;2024-03-23T04:03:01;7.40;99.90
59282;DHT22;45054;52.062;10.010;2024-03-23T04:05:29;7.40;99.90
59282;DHT22;45054;52.062;10.010;2024-03-23T04:07:54;7.30;99.90
59282;DHT22;45054;52.062;10.010;2024-03-23T04:10:20;7.30;99.90
59282;DHT22;45054;52.062;10.010;2024-03-23T04:12:45;7.20;99.90
59282;DHT22;45054;52.062;10.010;2024-03-23T04:15:11;7.20;99.90
59282;DHT22;45054;52.062;10.010;2024-03-23T04:17:37;7.20;99.90
59282;DHT22;45054;52.062;10.010;2024-03-23T04:20:03;7.20;99.90
59282;DHT22;45054;52.062;10.010;2024-03-23T04:22:30;7.20;99.90
59282;DHT22;45054;52.062;10.010;2024-03-23T04:24:56;7.20;99.90
59282;DHT22;45054;52.062;10.010;2024-03-23T04:27:22;7.20;99.90
59282;DHT22;45054;52.062;10.010;2024-03-23T04:29:48;7.20;99.90
59282;DHT22;45054;52.062;10.010;2024-03-23T04:32:13;7.10;99.90
59282;DHT22;45054;52.062;10.010;2024-03-23T04:34:39;7.10;99.90
59282;DHT22;45054;52.062;10.010;2024-03-23T04:37:04;7.10;99.90
59282;DHT22;45054;52.062;10.010;2024-03-23T04:39:31;7.10;99.90
59282;DHT22;45054;52.062;10.010;2024-03-23T04:41:57;7.10;99.90
59282;DHT22;45054;52.062;10.010;2024-03-23T04:44:22;7.10;99.90
59282;DHT22;45054;52.062;10.010;2024-03-23T04:46:48;7.10;99.90
59282;DHT22;45054;52.062;10.010;2024-03-23T04:49:13;7.10;99.90
59282;DHT22;45054;52.062;10.010;2024-03-23T04:51:39;7.00;99.90
59282;DHT22;45054;52.062;10.010;2024-03-23T04:54:05;6.90;99.90
59282;DHT22;45054;52.062;10.010;2024-03-23T04:56:31;6.90;99.90
59282;DHT22;45054;52.062;10.010;2024-03-23T04:58:57;7.00;99.90
59282;DHT22;45054;52.062;10.010;2024-03-23T05:01:23;7.00;99.90
59282;DHT22;45054;52.062;10.010;2024-03-23T05:03:48;7.00;99.90
59282;DHT22;45054;52.062;10.010;2024-03-23T05:06:14;7.00;99.90
59282;DHT22;45054;52.062;10.010;2024-03-23T05:08:39;7.00;99.90
59282;DHT22;45054;52.062;10.010;2024-03-23T05:11:05;6.90;99.90
59282;DHT22;45054;52.062;10.010;2024-03-23T05:13:32;6.90;99.90
59282;DHT22;45054;52.062;10.010;2024-03-23T05:15:57;6.80;99.90
59282;DHT22;45054;52.062;10.010;2024-03-23T05:18:23;6.80;99.90
59282;DHT22;45054;52.062;10.010;2024-03-23T05:20:48;6.80;99.90
59282;DHT22;45054;52.062;10.010;2024-03-23T05:23:20;6.70;99.90
59282;DHT22;45054;52.062;10.010;2024-03-23T05:25:46;6.70;99.90
59282;DHT22;45054;52.062;10.010;2024-03-23T05:28:11;6.70;99.90
59282;DHT22;45054;52.062;10.010;2024-03-23T05:30:38;6.70;99.90
59282;DHT22;45054;52.062;10.010;2024-03-23T05:33:04;6.70;99.90
59282;DHT22;45054;52.062;10.010;2024-03-23T05:35:29;6.80;99.90
59282;DHT22;45054;52.062;10.010;2024-03-23T05:37:55;6.80;99.90
59282;DHT22;45054;52.062;10.010;2024-03-23T05:40:21;6.80;99.90
59282;DHT22;45054;52.062;10.010;2024-03-23T05:42:46;6.80;99.90
59282;DHT22;45054;52.062;10.010;2024-03-23T05:45:12;6.70;99.90
59282;DHT22;45054;52.062;10.010;2024-03-23T05:47:39;6.70;99.90
59282;DHT22;45054;52.062;10.010;2024-03-23T05:50:05;6.70;99.90
59282;DHT22;45054;52.062;10.010;2024-03-23T05:52:30;6.60;99.90
59282;DHT22;45054;52.062;10.010;2024-03-23T05:54:56;6.60;99.90
59282;DHT22;45054;52.062;10.010;2024-03-23T05:57:21;6.60;99.90
59282;DHT22;45054;52.062;10.010;2024-03-23T05:59:47;6.50;99.90
59282;DHT22;45054;52.062;10.010;2024-03-23T06:02:13;6.40;99.90
59282;DHT22;45054;52.062;10.010;2024-03-23T06:04:39;6.40;99.90
59282;DHT22;45054;52.062;10.010;2024-03-23T06:07:05;6.40;99.90
59282;DHT22;45054;52.062;10.010;2024-03-23T06:09:31;6.40;99.90
59282;DHT22;45054;52.062;10.010;2024-03-23T06:11:56;6.40;99.90
59282;DHT22;45054;52.062;10.010;2024-03-23T06:14:22;6.50;99.90
59282;DHT22;45054;52.062;10.010;2024-03-23T06:16:47;6.50;99.90
59282;DHT22;45054;52.062;10.010;2024-03-23T06:19:13;6.60;99.90
59282;DHT22;45054;52.062;10.010;2024-03-23T06:21:44;6.60;99.90
59282;DHT22;45054;52.062;10.010;2024-03-23T06:24:10;6.60;99.90
59282;DHT22;45054;52.062;10.010;2024-03-23T06:26:35;6.60;99.90
59282;DHT22;45054;52.062;10.010;2024-03-23T06:29:01;6.50;99.90
59282;DHT22;45054;52.062;10.010;2024-03-23T06:31:26;6.50;99.90
59282;DHT22;45054;52.062;10.010;2024-03-23T06:33:52;6.40;99.90
59282;DHT22;45054;52.062;10.010;2024-03-23T06:36:18;6.30;99.90
59282;DHT22;45054;52.062;10.010;2024-03-23T06:38:45;6.20;99.90
59282;DHT22;45054;52.062;10.010;2024-03-23T06:41:10;6.10;99.90
59282;DHT22;45054;52.062;10.010;2024-03-23T06:43:36;6.10;99.90
59282;DHT22;45054;52.062;10.010;2024-03-23T06:46:02;6.00;99.90
59282;DHT22;45054;52.062;10.010;2024-03-23T06:48:28;6.10;99.90
59282;DHT22;45054;52.062;10.010;2024-03-23T06:50:55;6.10;99.90
59282;DHT22;45054;52.062;10.010;2024-03-23T06:53:21;6.10;99.90
59282;DHT22;45054;52.062;10.010;2024-03-23T06:55:51;6.10;99.90
59282;DHT22;45054;52.062;10.010;2024-03-23T06:58:17;6.00;99.90
59282;DHT22;45054;52.062;10.010;2024-03-23T07:00:43;6.00;99.90
59282;DHT22;45054;52.062;10.010;2024-03-23T07:03:09;6.00;99.90
59282;DHT22;45054;52.062;10.010;2024-03-23T07:05:34;6.00;99.90
59282;DHT22;45054;52.062;10.010;2024-03-23T07:08:00;5.90;99.90
59282;DHT22;45054;52.062;10.010;2024-03-23T07:10:25;6.00;99.90
59282;DHT22;45054;52.062;10.010;2024-03-23T07:12:52;6.00;99.90
59282;DHT22;45054;52.062;10.010;2024-03-23T07:15:18;6.10;99.90
59282;DHT22;45054;52.062;10.010;2024-03-23T07:17:46;6.00;99.90
59282;DHT22;45054;52.062;10.010;2024-03-23T07:20:12;6.00;99.90
59282;DHT22;45054;52.062;10.010;2024-03-23T07:22:37;6.10;99.90
59282;DHT22;45054;52.062;10.010;2024-03-23T07:25:04;6.10;99.90
59282;DHT22;45054;52.062;10.010;2024-03-23T07:27:30;6.10;99.90
59282;DHT22;45054;52.062;10.010;2024-03-23T07:29:57;6.20;99.90
59282;DHT22;45054;52.062;10.010;2024-03-23T07:32:22;6.20;99.90
59282;DHT22;45054;52.062;10.010;2024-03-23T07:34:48;6.20;99.90
59282;DHT22;45054;52.062;10.010;2024-03-23T07:37:14;6.20;99.90
59282;DHT22;45054;52.062;10.010;2024-03-23T07:39:40;6.30;99.90
59282;DHT22;45054;52.062;10.010;2024-03-23T07:42:05;6.30;99.90
59282;DHT22;45054;52.062;10.010;2024-03-23T07:44:31;6.40;99.90
59282;DHT22;45054;52.062;10.010;2024-03-23T07:47:00;6.30;99.90
59282;DHT22;45054;52.062;10.010;2024-03-23T07:49:25;6.20;99.90
59282;DHT22;45054;52.062;10.010;2024-03-23T07:51:51;6.20;99.90
59282;DHT22;45054;52.062;10.010;2024-03-23T07:54:16;6.20;99.90
59282;DHT22;45054;52.062;10.010;2024-03-23T07:56:42;6.30;99.90
59282;DHT22;45054;52.062;10.010;2024-03-23T07:59:07;6.30;99.90
59282;DHT22;45054;52.062;10.010;2024-03-23T08:08:06;6.50;99.90
59282;DHT22;45054;52.062;10.010;2024-03-23T08:10:32;6.60;99.90
59282;DHT22;45054;52.062;10.010;2024-03-23T08:12:57;6.60;99.90
59282;DHT22;45054;52.062;10.010;2024-03-23T08:15:23;6.70;99.90
59282;DHT22;45054;52.062;10.010;2024-03-23T08:17:49;6.70;99.90
59282;DHT22;45054;52.062;10.010;2024-03-23T08:20:14;6.70;99.90
59282;DHT22;45054;52.062;10.010;2024-03-23T08:22:42;6.80;99.90
59282;DHT22;45054;52.062;10.010;2024-03-23T08:25:09;6.80;99.90
59282;DHT22;45054;52.062;10.010;2024-03-23T08:27:35;6.80;99.90
59282;DHT22;45054;52.062;10.010;2024-03-23T08:30:00;6.80;99.90
59282;DHT22;45054;52.062;10.010;2024-03-23T08:32:26;6.80;99.90
59282;DHT22;45054;52.062;10.010;2024-03-23T08:34:51;6.80;99.90
59282;DHT22;45054;52.062;10.010;2024-03-23T08:37:17;6.80;99.90
59282;DHT22;45054;52.062;10.010;2024-03-23T08:39:43;6.70;99.90
59282;DHT22;45054;52.062;10.010;2024-03-23T08:42:10;6.60;99.90
59282;DHT22;45054;52.062;10.010;2024-03-23T08:44:36;6.50;99.90
59282;DHT22;45054;52.062;10.010;2024-03-23T08:47:01;6.40;99.90
59282;DHT22;45054;52.062;10.010;2024-03-23T08:49:27;6.30;99.90
59282;DHT22;45054;52.062;10.010;2024-03-23T08:51:53;6.20;99.90
59282;DHT22;45054;52.062;10.010;2024-03-23T08:54:18;6.20;99.90
59282;DHT22;45054;52.062;10.010;2024-03-23T08:56:44;6.20;99.90
59282;DHT22;45054;52.062;10.010;2024-03-23T08:59:11;6.20;99.90
59282;DHT22;45054;52.062;10.010;2024-03-23T09:01:36;6.30;99.90
59282;DHT22;45054;52.062;10.010;2024-03-23T09:04:02;6.40;99.90
59282;DHT22;45054;52.062;10.010;2024-03-23T09:06:28;6.40;99.90
59282;DHT22;45054;52.062;10.010;2024-03-23T09:08:53;6.50;99.90
59282;DHT22;45054;52.062;10.010;2024-03-23T09:11:19;6.60;99.90
59282;DHT22;45054;52.062;10.010;2024-03-23T09:13:44;6.60;99.90
59282;DHT22;45054;52.062;10.010;2024-03-23T09:16:13;6.60;99.90
59282;DHT22;45054;52.062;10.010;2024-03-23T09:18:39;6.70;99.90
59282;DHT22;45054;52.062;10.010;2024-03-23T09:21:11;6.70;99.90
59282;DHT22;45054;52.062;10.010;2024-03-23T09:23:36;6.70;99.90
59282;DHT22;45054;52.062;10.010;2024-03-23T09:26:03;6.70;99.90
59282;DHT22;45054;52.062;10.010;2024-03-23T09:28:28;6.80;99.90
59282;DHT22;45054;52.062;10.010;2024-03-23T09:30:54;6.80;99.90
59282;DHT22;45054;52.062;10.010;2024-03-23T09:33:21;6.90;99.90
59282;DHT22;45054;52.062;10.010;2024-03-23T09:35:46;7.00;99.90
59282;DHT22;45054;52.062;10.010;2024-03-23T09:38:12;7.10;99.90
59282;DHT22;45054;52.062;10.010;2024-03-23T09:40:40;7.10;99.90
59282;DHT22;45054;52.062;10.010;2024-03-23T09:43:06;7.00;99.90
59282;DHT22;45054;52.062;10.010;2024-03-23T09:45:34;7.10;99.90
59282;DHT22;45054;52.062;10.010;2024-03-23T09:48:01;7.10;99.90
59282;DHT22;45054;52.062;10.010;2024-03-23T09:50:28;7.10;99.90
59282;DHT22;45054;52.062;10.010;2024-03-23T09:52:54;7.10;99.90
59282;DHT22;45054;52.062;10.010;2024-03-23T09:55:19;7.10;99.90
59282;DHT22;45054;52.062;10.010;2024-03-23T09:57:45;7.10;99.90
59282;DHT22;45054;52.062;10.010;2024-03-23T10:00:12;7.10;99.90
59282;DHT22;45054;52.062;10.010;2024-03-23T10:02:37;7.10;99.90
59282;DHT22;45054;52.062;10.010;2024-03-23T10:05:04;7.10;99.90
59282;DHT22;45054;52.062;10.010;2024-03-23T10:07:31;7.10;99.90
59282;DHT22;45054;52.062;10.010;2024-03-23T10:09:56;7.10;99.90
59282;DHT22;45054;52.062;10.010;2024-03-23T10:12:23;7.20;99.90
59282;DHT22;45054;52.062;10.010;2024-03-23T10:14:49;7.30;99.90
59282;DHT22;45054;52.062;10.010;2024-03-23T10:17:16;7.30;99.90
59282;DHT22;45054;52.062;10.010;2024-03-23T10:19:42;7.40;99.90
59282;DHT22;45054;52.062;10.010;2024-03-23T10:22:09;7.40;99.90
59282;DHT22;45054;52.062;10.010;2024-03-23T10:24:36;7.50;99.90
59282;DHT22;45054;52.062;10.010;2024-03-23T10:27:01;7.60;99.90
59282;DHT22;45054;52.062;10.010;2024-03-23T10:29:27;7.60;99.90
59282;DHT22;45054;52.062;10.010;2024-03-23T10:31:53;7.80;99.90
59282;DHT22;45054;52.062;10.010;2024-03-23T10:34:25;7.90;99.90
59282;DHT22;45054;52.062;10.010;2024-03-23T10:36:53;8.00;99.90
59282;DHT22;45054;52.062;10.010;2024-03-23T10:39:20;8.00;99.90
59282;DHT22;45054;52.062;10.010;2024-03-23T10:41:49;8.00;99.90
59282;DHT22;45054;52.062;10.010;2024-03-23T10:44:14;8.00;99.90
59282;DHT22;45054;52.062;10.010;2024-03-23T10:46:42;7.90;99.90
59282;DHT22;45054;52.062;10.010;2024-03-23T10:49:07;7.90;99.90
59282;DHT22;45054;52.062;10.010;2024-03-23T10:51:33;7.90;99.90
59282;DHT22;45054;52.062;10.010;2024-03-23T10:53:59;7.90;99.90
59282;DHT22;45054;52.062;10.010;2024-03-23T10:56:30;8.00;99.90
59282;DHT22;45054;52.062;10.010;2024-03-23T10:58:58;8.00;99.90
59282;DHT22;45054;52.062;10.010;2024-03-23T11:01:23;8.10;99.90
59282;DHT22;45054;52.062;10.010;2024-03-23T11:03:49;8.10;99.90
59282;DHT22;45054;52.062;10.010;2024-03-23T11:06:35;8.20;99.90
59282;DHT22;45054;52.062;10.010;2024-03-23T11:09:01;8.30;99.90
59282;DHT22;45054;52.062;10.010;2024-03-23T11:11:26;8.30;99.90
59282;DHT22;45054;52.062;10.010;2024-03-23T11:13:53;8.30;99.90
59282;DHT22;45054;52.062;10.010;2024-03-23T11:16:24;8.40;99.90
59282;DHT22;45054;52.062;10.010;2024-03-23T11:18:51;8.50;99.90
59282;DHT22;45054;52.062;10.010;2024-03-23T11:21:51;8.60;99.90
59282;DHT22;45054;52.062;10.010;2024-03-23T11:24:17;8.60;99.90
59282;DHT22;45054;52.062;10.010;2024-03-23T11:26:42;8.60;99.90
59282;DHT22;45054;52.062;10.010;2024-03-23T11:29:12;8.60;99.90
59282;DHT22;45054;52.062;10.010;2024-03-23T11:31:42;8.50;99.90
59282;DHT22;45054;52.062;10.010;2024-03-23T11:34:10;8.50;99.90
59282;DHT22;45054;52.062;10.010;2024-03-23T11:36:36;8.40;99.90
59282;DHT22;45054;52.062;10.010;2024-03-23T11:39:12;8.30;99.90
59282;DHT22;45054;52.062;10.010;2024-03-23T11:41:45;8.20;99.90
59282;DHT22;45054;52.062;10.010;2024-03-23T11:44:15;8.10;99.90
59282;DHT22;45054;52.062;10.010;2024-03-23T11:46:42;8.20;99.90
59282;DHT22;45054;52.062;10.010;2024-03-23T11:49:20;8.30;99.90
59282;DHT22;45054;52.062;10.010;2024-03-23T11:51:45;8.40;99.90
59282;DHT22;45054;52.062;10.010;2024-03-23T11:54:11;8.20;99.90
59282;DHT22;45054;52.062;10.010;2024-03-23T11:56:37;8.00;99.90
59282;DHT22;45054;52.062;10.010;2024-03-23T11:59:03;8.00;99.90
59282;DHT22;45054;52.062;10.010;2024-03-23T12:01:28;8.00;99.90
59282;DHT22;45054;52.062;10.010;2024-03-23T12:03:55;8.10;99.90
59282;DHT22;45054;52.062;10.010;2024-03-23T12:06:21;8.20;99.90
59282;DHT22;45054;52.062;10.010;2024-03-23T12:08:48;8.30;99.90
59282;DHT22;45054;52.062;10.010;2024-03-23T12:11:15;8.40;99.90
59282;DHT22;45054;52.062;10.010;2024-03-23T12:13:42;8.50;99.90
59282;DHT22;45054;52.062;10.010;2024-03-23T12:16:12;8.50;99.90
59282;DHT22;45054;52.062;10.010;2024-03-23T12:18:39;8.70;99.90
59282;DHT22;45054;52.062;10.010;2024-03-23T12:21:06;8.70;99.90
59282;DHT22;45054;52.062;10.010;2024-03-23T12:23:32;8.90;99.90
59282;DHT22;45054;52.062;10.010;2024-03-23T12:25:57;8.90;99.90
59282;DHT22;45054;52.062;10.010;2024-03-23T12:28:23;8.80;99.90
59282;DHT22;45054;52.062;10.010;2024-03-23T12:30:55;8.60;99.90
59282;DHT22;45054;52.062;10.010;2024-03-23T12:33:21;8.50;99.90
59282;DHT22;45054;52.062;10.010;2024-03-23T12:35:47;8.30;99.90
59282;DHT22;45054;52.062;10.010;2024-03-23T12:38:14;8.30;99.90
59282;DHT22;45054;52.062;10.010;2024-03-23T12:40:39;8.20;99.90
59282;DHT22;45054;52.062;10.010;2024-03-23T12:43:17;8.10;99.90
59282;DHT22;45054;52.062;10.010;2024-03-23T12:45:46;7.80;99.90
59282;DHT22;45054;52.062;10.010;2024-03-23T12:48:11;7.50;99.90
59282;DHT22;45054;52.062;10.010;2024-03-23T12:50:37;7.30;99.90
59282;DHT22;45054;52.062;10.010;2024-03-23T12:53:13;7.10;99.90
59282;DHT22;45054;52.062;10.010;2024-03-23T12:55:39;7.20;99.90
59282;DHT22;45054;52.062;10.010;2024-03-23T12:58:12;7.10;99.90
59282;DHT22;45054;52.062;10.010;2024-03-23T13:00:41;7.20;99.90
59282;DHT22;45054;52.062;10.010;2024-03-23T13:03:07;6.90;99.90
59282;DHT22;45054;52.062;10.010;2024-03-23T13:08:42;5.40;99.90
59282;DHT22;45054;52.062;10.010;2024-03-23T13:11:09;5.10;99.90
59282;DHT22;45054;52.062;10.010;2024-03-23T13:13:38;5.00;99.90
59282;DHT22;45054;52.062;10.010;2024-03-23T13:16:07;4.90;99.90
59282;DHT22;45054;52.062;10.010;2024-03-23T13:18:33;5.10;99.90
59282;DHT22;45054;52.062;10.010;2024-03-23T13:20:59;5.20;99.90
59282;DHT22;45054;52.062;10.010;2024-03-23T13:23:25;5.40;99.90
59282;DHT22;45054;52.062;10.010;2024-03-23T13:25:52;5.60;99.90
59282;DHT22;45054;52.062;10.010;2024-03-23T13:28:17;5.80;99.90
59282;DHT22;45054;52.062;10.010;2024-03-23T13:30:50;6.00;99.90
59282;DHT22;45054;52.062;10.010;2024-03-23T13:33:16;6.20;99.90
59282;DHT22;45054;52.062;10.010;2024-03-23T13:35:49;6.40;99.90
59282;DHT22;45054;52.062;10.010;2024-03-23T13:38:14;6.80;99.90
59282;DHT22;45054;52.062;10.010;2024-03-23T13:40:49;7.00;99.90
59282;DHT22;45054;52.062;10.010;2024-03-23T13:43:16;7.40;99.90
59282;DHT22;45054;52.062;10.010;2024-03-23T13:45:42;7.50;99.90
59282;DHT22;45054;52.062;10.010;2024-03-23T13:48:08;7.40;99.90
59282;DHT22;45054;52.062;10.010;2024-03-23T13:50:33;7.30;99.90
59282;DHT22;45054;52.062;10.010;2024-03-23T13:52:59;7.30;99.90
59282;DHT22;45054;52.062;10.010;2024-03-23T13:55:25;7.30;99.90
59282;DHT22;45054;52.062;10.010;2024-03-23T13:57:50;7.10;99.90
59282;DHT22;45054;52.062;10.010;2024-03-23T14:00:18;7.10;99.90
59282;DHT22;45054;52.062;10.010;2024-03-23T14:02:43;7.10;99.90
59282;DHT22;45054;52.062;10.010;2024-03-23T14:05:09;7.10;99.90
59282;DHT22;45054;52.062;10.010;2024-03-23T14:07:34;7.10;99.90
59282;DHT22;45054;52.062;10.010;2024-03-23T14:10:02;6.90;99.90
59282;DHT22;45054;52.062;10.010;2024-03-23T14:12:28;6.60;99.90
59282;DHT22;45054;52.062;10.010;2024-03-23T14:14:53;6.50;99.90
59282;DHT22;45054;52.062;10.010;2024-03-23T14:17:20;6.30;99.90
59282;DHT22;45054;52.062;10.010;2024-03-23T14:19:46;6.20;99.90
59282;DHT22;45054;52.062;10.010;2024-03-23T14:22:11;6.10;99.90
59282;DHT22;45054;52.062;10.010;2024-03-23T14:24:37;6.00;99.90
59282;DHT22;45054;52.062;10.010;2024-03-23T14:27:03;6.10;99.90
59282;DHT22;45054;52.062;10.010;2024-03-23T14:29:28;6.30;99.90
59282;DHT22;45054;52.062;10.010;2024-03-23T14:31:54;6.50;99.90
59282;DHT22;45054;52.062;10.010;2024-03-23T14:34:21;6.90;99.90
59282;DHT22;45054;52.062;10.010;2024-03-23T14:36:46;7.40;99.90
59282;DHT22;45054;52.062;10.010;2024-03-23T14:39:12;7.80;99.90
59282;DHT22;45054;52.062;10.010;2024-03-23T14:41:38;8.00;99.90
59282;DHT22;45054;52.062;10.010;2024-03-23T14:44:03;8.30;99.90
59282;DHT22;45054;52.062;10.010;2024-03-23T14:46:29;8.40;99.90
59282;DHT22;45054;52.062;10.010;2024-03-23T14:48:55;8.00;99.90
59282;DHT22;45054;52.062;10.010;2024-03-23T14:51:24;7.60;99.90
59282;DHT22;45054;52.062;10.010;2024-03-23T14:53:50;7.10;99.90
59282;DHT22;45054;52.062;10.010;2024-03-23T14:56:15;6.20;99.90
59282;DHT22;45054;52.062;10.010;2024-03-23T14:58:45;5.90;99.90
59282;DHT22;45054;52.062;10.010;2024-03-23T15:01:11;5.80;99.90
59282;DHT22;45054;52.062;10.010;2024-03-23T15:03:37;5.60;99.90
59282;DHT22;45054;52.062;10.010;2024-03-23T15:06:02;5.60;99.90
59282;DHT22;45054;52.062;10.010;2024-03-23T15:08:30;5.50;99.90
59282;DHT22;45054;52.062;10.010;2024-03-23T15:10:58;5.20;99.90
59282;DHT22;45054;52.062;10.010;2024-03-23T15:13:24;5.20;99.90
59282;DHT22;45054;52.062;10.010;2024-03-23T15:15:50;5.30;99.90
59282;DHT22;45054;52.062;10.010;2024-03-23T15:18:15;5.80;99.90
59282;DHT22;45054;52.062;10.010;2024-03-23T15:20:41;6.10;99.90
59282;DHT22;45054;52.062;10.010;2024-03-23T15:23:07;6.20;99.90
59282;DHT22;45054;52.062;10.010;2024-03-23T15:25:34;6.30;99.90
59282;DHT22;45054;52.062;10.010;2024-03-23T15:27:59;6.40;99.90
59282;DHT22;45054;52.062;10.010;2024-03-23T15:30:25;6.70;99.90
59282;DHT22;45054;52.062;10.010;2024-03-23T15:32:50;7.80;99.90
59282;DHT22;45054;52.062;10.010;2024-03-23T15:35:16;9.70;99.90
59282;DHT22;45054;52.062;10.010;2024-03-23T15:37:41;11.90;99.90
59282;DHT22;45054;52.062;10.010;2024-03-23T15:40:08;13.50;99.90
59282;DHT22;45054;52.062;10.010;2024-03-23T15:42:35;14.80;99.90
59282;DHT22;45054;52.062;10.010;2024-03-23T15:45:01;15.60;99.90
59282;DHT22;45054;52.062;10.010;2024-03-23T15:47:26;16.10;99.90
59282;DHT22;45054;52.062;10.010;2024-03-23T15:49:52;15.40;99.90
59282;DHT22;45054;52.062;10.010;2024-03-23T15:52:17;14.10;99.90
59282;DHT22;45054;52.062;10.010;2024-03-23T15:54:43;12.80;99.90
59282;DHT22;45054;52.062;10.010;2024-03-23T15:57:09;11.90;99.90
59282;DHT22;45054;52.062;10.010;2024-03-23T15:59:35;11.00;99.90
59282;DHT22;45054;52.062;10.010;2024-03-23T16:02:04;10.30;99.90
59282;DHT22;45054;52.062;10.010;2024-03-23T16:04:29;9.50;99.90
59282;DHT22;45054;52.062;10.010;2024-03-23T16:06:55;8.90;99.90
59282;DHT22;45054;52.062;10.010;2024-03-23T16:09:21;7.90;99.90
59282;DHT22;45054;52.062;10.010;2024-03-23T16:11:46;7.00;99.90
59282;DHT22;45054;52.062;10.010;2024-03-23T16:14:12;6.30;99.90
59282;DHT22;45054;52.062;10.010;2024-03-23T16:16:39;5.70;99.90
59282;DHT22;45054;52.062;10.010;2024-03-23T16:19:04;5.40;99.90
59282;DHT22;45054;52.062;10.010;2024-03-23T16:21:30;5.20;99.90
59282;DHT22;45054;52.062;10.010;2024-03-23T16:23:55;5.00;99.90
59282;DHT22;45054;52.062;10.010;2024-03-23T16:26:21;4.80;99.90